Airfield :
LOGIN :

Register | Disclaimer

   EN    FR    IT 

 










Legend :    VFR   Marginal VFR   IFR   Intensive IFR   Very Intensive IFR
Visi :
Ceiling :
>= 8 km
>= 3000ft
5 to 8 km
1000 to 3000 ft
1500m to 5 km
500 to 1000 ft
800 to 1500m
200 to 500 ft
< 800m
< 200 ft
Symbols :   Thunderstorms  Fog  Heavy snow  Heavy precipitations  Wind > 20 kt
SIGMETs :     Misc.  Thunderstorms  Icing  Turbulence  Mountain Waves  Volcanic Ashes






- Airport Elevation : 231 ft
- IATA code : WTN


EGXW - RAF Waddington

CURRENT METAR :
  • 250720Z 24003KT 5000 HZ OVC011 02/M01 Q1033 TEMPO 4000 RMK GRN TEMPO GRN

EXPIRED METARs :
  • 250650Z 24004KT 5000 HZ OVC011 02/M01 Q1033 TEMPO 4000 RMK GRN TEMPO GRN
  • 250550Z AUTO 22004KT 6000 HZ OVC010/// 02/M01 Q1033
  • 250450Z AUTO 22004KT 6000 HZ OVC010/// 02/M01 Q1033

TAF TAF EGXW
Valid from the 25 at 06:00 until the 26 at 00:00 UTC


250420Z 2506/2524 24005KT 5000 HZ OVC010
PROB40 2506/2512 4000
PROB40 2518/2524 4000



MET'MAP, your aeronautical weather chart ! - Copyright ORBIFLY December 2007 - Disclaimer

ORBIFLY MET'MAP TEAM :

Programming & Development : Alexandra Zaïnal
Original concept : Baudouin d'Aumeries
Technical & hardware support : Manuel Goepfert
Assistance : Marc-Olivier Méhu

Contact : metmap@orbifly.com




SOURCES & CREDITS :

   NOAA